createdAt,value
2019-04-11T00:00:03.427Z,55.88
2019-04-11T00:00:28.800Z,55.4
2019-04-11T00:00:57.622Z,56.07
2019-04-11T00:01:36.656Z,55.97
2019-04-11T00:01:58.756Z,55.88
2019-04-11T00:02:26.875Z,55.59
2019-04-11T00:02:55.256Z,55.94
2019-04-11T00:03:22.612Z,55.76
2019-04-11T00:03:51.430Z,55.85
2019-04-11T00:04:21.966Z,56.45
2019-04-11T00:04:52.530Z,56.35
2019-04-11T00:05:23.004Z,56.35
2019-04-11T00:05:52.859Z,55.97
2019-04-11T00:06:23.443Z,56.42
2019-04-11T00:06:53.817Z,56.35
2019-04-11T00:07:20.402Z,56.32
2019-04-11T00:07:48.778Z,56.23
2019-04-11T00:08:17.603Z,56.32
2019-04-11T00:08:45.881Z,56.07
2019-04-11T00:09:14.407Z,56.04
2019-04-11T00:09:44.931Z,55.97
2019-04-11T00:10:14.422Z,56.26
2019-04-11T00:10:42.689Z,55.85
2019-04-11T00:11:10.111Z,56.32
2019-04-11T00:11:39.269Z,56.23
2019-04-11T00:12:08.301Z,56.51
2019-04-11T00:12:36.769Z,56.61
2019-04-11T00:13:17.022Z,56.8
2019-04-11T00:13:37.197Z,56.26
2019-04-11T00:14:07.349Z,56.35
2019-04-11T00:14:35.830Z,56.42
2019-04-11T00:15:02.992Z,56.04
2019-04-11T00:15:30.682Z,56.04
2019-04-11T00:16:01.190Z,56.8
2019-04-11T00:16:30.997Z,56.61
2019-04-11T00:17:01.618Z,56.89
2019-04-11T00:17:31.940Z,57.09
2019-04-11T00:17:58.569Z,56.89
2019-04-11T00:18:27.037Z,56.42
2019-04-11T00:18:56.903Z,56.99
2019-04-11T00:19:24.337Z,56.99
2019-04-11T00:19:53.673Z,56.89
2019-04-11T00:20:22.120Z,57.18
2019-04-11T00:20:50.586Z,56.8
2019-04-11T00:21:18.068Z,56.99
2019-04-11T00:21:47.260Z,56.89
2019-04-11T00:22:17.276Z,57.28
2019-04-11T00:22:43.772Z,56.89
2019-04-11T00:23:12.173Z,57.09
2019-04-11T00:23:42.611Z,57.18
2019-04-11T00:24:11.396Z,57.28
2019-04-11T00:24:39.803Z,57.65
2019-04-11T00:25:09.415Z,57.28
2019-04-11T00:25:37.793Z,56.99
2019-04-11T00:26:05.079Z,57.28
2019-04-11T00:26:32.579Z,57.09
2019-04-11T00:27:02.465Z,57.09
2019-04-11T00:27:32.910Z,57.18
2019-04-11T00:28:03.490Z,57.56
2019-04-11T00:28:33.822Z,57.56
2019-04-11T00:29:03.922Z,57.46
2019-04-11T00:29:34.340Z,57.46
2019-04-11T00:30:03.927Z,57.28
2019-04-11T00:30:32.332Z,57.09
2019-04-11T00:31:01.731Z,57.37
2019-04-11T00:31:31.149Z,58.13
2019-04-11T00:32:01.074Z,57.94
2019-04-11T00:32:31.450Z,57.65
2019-04-11T00:33:02.135Z,57.84
2019-04-11T00:33:30.417Z,57.94
2019-04-11T00:33:58.311Z,57.75
2019-04-11T00:34:26.858Z,57.84
2019-04-11T00:34:55.293Z,57.75
2019-04-11T00:35:23.794Z,57.75
2019-04-11T00:35:52.220Z,57.75
2019-04-11T00:36:22.199Z,57.75
2019-04-11T00:36:51.281Z,58.03
2019-04-11T00:37:19.430Z,57.84
2019-04-11T00:37:47.451Z,57.94
2019-04-11T00:38:17.760Z,57.84
2019-04-11T00:38:47.816Z,57.84
2019-04-11T00:39:16.726Z,58.03
2019-04-11T00:39:43.707Z,57.65
2019-04-11T00:40:13.065Z,58.03
2019-04-11T00:40:41.611Z,57.84
2019-04-11T00:41:09.962Z,57.65
2019-04-11T00:41:39.766Z,57.84
2019-04-11T00:42:07.266Z,57.75
2019-04-11T00:42:36.682Z,57.84
2019-04-11T00:43:05.204Z,58.13
2019-04-11T00:43:37.503Z,58.22
2019-04-11T00:44:00.800Z,57.84
2019-04-11T00:44:28.253Z,58.13
2019-04-11T00:44:57.097Z,57.94
2019-04-11T00:45:27.533Z,57.94
2019-04-11T00:45:54.138Z,58.32
2019-04-11T00:46:23.201Z,58.22
2019-04-11T00:46:52.931Z,57.94
2019-04-11T00:47:22.713Z,58.32
2019-04-11T00:47:53.174Z,58.41
2019-04-11T00:48:23.768Z,58.13
2019-04-11T00:48:50.120Z,58.03
2019-04-11T00:49:18.654Z,58.13
2019-04-11T00:49:48.459Z,58.32
2019-04-11T00:50:17.669Z,57.94
2019-04-11T00:50:45.519Z,57.84
2019-04-11T00:51:16.110Z,57.75
2019-04-11T00:51:44.378Z,57.94
2019-04-11T00:52:12.083Z,58.03
2019-04-11T00:52:39.149Z,58.03
2019-04-11T00:53:08.468Z,58.13
2019-04-11T00:53:36.213Z,58.41
2019-04-11T00:54:04.592Z,57.94
2019-04-11T00:54:35.166Z,58.13
2019-04-11T00:55:05.042Z,58.03
2019-04-11T00:55:35.504Z,57.94
2019-04-11T00:56:04.152Z,58.22
2019-04-11T00:56:32.460Z,58.32
2019-04-11T00:57:00.903Z,57.84
2019-04-11T00:57:30.693Z,58.22
2019-04-11T00:57:58.227Z,57.94
2019-04-11T00:58:27.654Z,58.22
2019-04-11T00:58:56.076Z,58.32
2019-04-11T00:59:24.579Z,58.22
2019-04-11T00:59:51.988Z,58.51
2019-04-11T01:00:20.859Z,58.61
2019-04-11T01:00:49.964Z,58.2
2019-04-11T01:01:17.757Z,58.41
2019-04-11T01:01:46.833Z,58.98
2019-04-11T01:02:17.600Z,59.17
2019-04-11T01:02:47.429Z,58.22
2019-04-11T01:03:14.958Z,58.67
2019-04-11T01:03:43.276Z,58.89
2019-04-11T01:04:11.806Z,58.98
2019-04-11T01:04:41.114Z,58.98
2019-04-11T01:05:08.245Z,58.98
2019-04-11T01:05:35.020Z,59.08
2019-04-11T01:06:02.391Z,58.67
2019-04-11T01:06:28.693Z,58.76
2019-04-11T01:06:58.376Z,58.89
2019-04-11T01:07:28.924Z,58.7
2019-04-11T01:07:59.552Z,58.7
2019-04-11T01:08:29.363Z,58.8
2019-04-11T01:08:59.902Z,58.89
2019-04-11T01:09:26.417Z,58.89
2019-04-11T01:09:54.785Z,58.89
2019-04-11T01:10:24.400Z,58.32
2019-04-11T01:10:51.793Z,58.7
2019-04-11T01:11:21.605Z,58.8
2019-04-11T01:11:52.158Z,59.08
2019-04-11T01:12:22.652Z,58.7
2019-04-11T01:12:51.316Z,58.8
2019-04-11T01:13:18.774Z,58.98
2019-04-11T01:13:50.657Z,58.98
2019-04-11T01:14:15.317Z,58.8
2019-04-11T01:14:44.376Z,58.8
2019-04-11T01:15:11.939Z,58.98
2019-04-11T01:15:40.651Z,58.61
2019-04-11T01:16:09.042Z,58.89
2019-04-11T01:16:38.798Z,58.61
2019-04-11T01:17:07.758Z,58.89
2019-04-11T01:17:34.742Z,58.98
2019-04-11T01:18:02.128Z,59.17
2019-04-11T01:18:30.980Z,58.41
2019-04-11T01:18:58.227Z,58.41
2019-04-11T01:19:24.844Z,58.61
2019-04-11T01:19:53.101Z,58.89
2019-04-11T01:20:23.699Z,58.89
2019-04-11T01:20:51.523Z,58.89
2019-04-11T01:21:18.666Z,58.98
2019-04-11T01:21:46.384Z,58.41
2019-04-11T01:22:14.010Z,58.22
2019-04-11T01:22:40.604Z,58.98
2019-04-11T01:23:08.935Z,58.89
2019-04-11T01:23:37.332Z,58.51
2019-04-11T01:24:04.813Z,58.89
2019-04-11T01:24:31.489Z,58.98
2019-04-11T01:24:58.587Z,58.98
2019-04-11T01:25:28.394Z,58.8
2019-04-11T01:25:55.001Z,59.08
2019-04-11T01:26:23.231Z,58.98
2019-04-11T01:26:53.768Z,58.7
2019-04-11T01:27:21.601Z,58.8
2019-04-11T01:27:50.002Z,58.8
2019-04-11T01:28:20.640Z,58.98
2019-04-11T01:28:49.056Z,59.08
2019-04-11T01:29:17.608Z,59.27
2019-04-11T01:29:45.009Z,59.27
2019-04-11T01:30:13.711Z,59.17
2019-04-11T01:30:41.211Z,59.08
2019-04-11T01:31:09.446Z,58.61
2019-04-11T01:31:36.519Z,58.61
2019-04-11T01:32:04.259Z,58.8
2019-04-11T01:32:33.678Z,59.08
2019-04-11T01:33:00.100Z,59.08
2019-04-11T01:33:29.660Z,58.98
2019-04-11T01:34:00.103Z,58.98
2019-04-11T01:34:26.726Z,58.7
2019-04-11T01:34:57.142Z,58.7
2019-04-11T01:35:25.523Z,58.98
2019-04-11T01:35:55.365Z,58.61
2019-04-11T01:36:23.751Z,58.7
2019-04-11T01:36:53.340Z,58.8
2019-04-11T01:37:21.822Z,58.98
2019-04-11T01:37:48.146Z,58.89
2019-04-11T01:38:16.464Z,58.61
2019-04-11T01:38:46.362Z,59.27
2019-04-11T01:39:15.491Z,59.17
2019-04-11T01:39:43.767Z,59.27
2019-04-11T01:40:13.727Z,59.08
2019-04-11T01:40:42.245Z,58.8
2019-04-11T01:41:10.004Z,58.89
2019-04-11T01:41:37.108Z,58.98
2019-04-11T01:42:06.979Z,59.27
2019-04-11T01:42:37.475Z,59.27
2019-04-11T01:43:08.071Z,58.98
2019-04-11T01:43:35.700Z,59.27
2019-04-11T01:44:07.436Z,59.17
2019-04-11T01:44:36.664Z,59.17
2019-04-11T01:45:07.308Z,58.98
2019-04-11T01:45:35.870Z,59.08
2019-04-11T01:46:03.354Z,59.17
2019-04-11T01:46:31.932Z,59.08
2019-04-11T01:47:02.529Z,59.27
2019-04-11T01:47:32.947Z,59.17
2019-04-11T01:48:03.517Z,59.27
2019-04-11T01:48:28.916Z,59.27
2019-04-11T01:48:57.639Z,59.27
2019-04-11T01:49:28.208Z,59.05
2019-04-11T01:49:54.578Z,59.17
2019-04-11T01:50:23.023Z,59.55
2019-04-11T01:50:51.751Z,59.08
2019-04-11T01:51:19.327Z,59.17
2019-04-11T01:51:47.622Z,59.17
2019-04-11T01:52:15.591Z,59.36
2019-04-11T01:52:42.764Z,59.74
2019-04-11T01:53:10.983Z,59.65
2019-04-11T01:53:39.468Z,59.74
2019-04-11T01:54:08.500Z,59.46
2019-04-11T01:54:37.601Z,59.65
2019-04-11T01:55:08.218Z,59.74
2019-04-11T01:55:38.687Z,59.74
2019-04-11T01:56:09.262Z,59.36
2019-04-11T01:56:39.131Z,59.55
2019-04-11T01:57:07.289Z,59.71
2019-04-11T01:57:33.958Z,59.52
2019-04-11T01:58:02.526Z,59.74
2019-04-11T01:58:30.832Z,59.81
2019-04-11T01:58:59.375Z,59.81
2019-04-11T01:59:29.060Z,59.71
2019-04-11T01:59:59.586Z,59.91
2019-04-11T02:00:28.437Z,59.65
2019-04-11T02:00:56.742Z,59.65
2019-04-11T02:01:25.072Z,59.81
2019-04-11T02:01:54.876Z,59.84
2019-04-11T02:02:24.392Z,59.93
2019-04-11T02:02:52.886Z,60.03
2019-04-11T02:03:21.174Z,60.1
2019-04-11T02:03:49.721Z,60
2019-04-11T02:04:17.158Z,60.03
2019-04-11T02:04:46.028Z,59.91
2019-04-11T02:05:16.630Z,59.91
2019-04-11T02:05:47.349Z,59.91
2019-04-11T02:06:17.947Z,59.81
2019-04-11T02:06:45.865Z,60.38
2019-04-11T02:07:14.181Z,60
2019-04-11T02:07:42.675Z,60.19
2019-04-11T02:08:11.344Z,60.19
2019-04-11T02:08:39.622Z,60.57
2019-04-11T02:09:08.070Z,60.57
2019-04-11T02:09:37.990Z,60.19
2019-04-11T02:10:08.515Z,60.38
2019-04-11T02:10:36.929Z,60.38
2019-04-11T02:11:05.367Z,60.19
2019-04-11T02:11:33.842Z,60.28
2019-04-11T02:12:01.650Z,60.28
2019-04-11T02:12:28.951Z,60.85
2019-04-11T02:12:59.591Z,60.66
2019-04-11T02:13:27.961Z,60.66
2019-04-11T02:14:04.982Z,60.57
2019-04-11T02:14:25.883Z,60.66
2019-04-11T02:14:53.155Z,60.19
2019-04-11T02:15:21.947Z,60
2019-04-11T02:15:50.098Z,60.38
2019-04-11T02:16:18.910Z,61.14
2019-04-11T02:16:47.314Z,61.61
2019-04-11T02:17:16.620Z,61.33
2019-04-11T02:17:44.313Z,61.42
2019-04-11T02:18:13.088Z,61.14
2019-04-11T02:18:43.593Z,61.23
2019-04-11T02:19:12.133Z,61.42
2019-04-11T02:19:40.518Z,61.33
2019-04-11T02:20:09.104Z,61.61
2019-04-11T02:20:38.972Z,61.61
2019-04-11T02:21:09.377Z,61.52
2019-04-11T02:21:40.027Z,61.61
2019-04-11T02:22:10.383Z,61.52
2019-04-11T02:22:40.428Z,61.8
2019-04-11T02:23:09.484Z,61.23
2019-04-11T02:23:37.265Z,61.23
2019-04-11T02:24:05.690Z,61.23
2019-04-11T02:24:34.173Z,61.52
2019-04-11T02:25:01.784Z,61.42
2019-04-11T02:25:30.372Z,61.42
2019-04-11T02:25:57.863Z,61.33
2019-04-11T02:26:27.043Z,61.61
2019-04-11T02:26:56.444Z,61.42
2019-04-11T02:27:27.367Z,61.04
2019-04-11T02:27:53.875Z,61.14
2019-04-11T02:28:22.996Z,60.66
2019-04-11T02:28:49.852Z,61.04
2019-04-11T02:29:18.020Z,60.66
2019-04-11T02:29:44.755Z,60.95
2019-04-11T02:30:15.928Z,60.95
2019-04-11T02:30:45.439Z,60.85
2019-04-11T02:31:13.789Z,60.95
2019-04-11T02:31:42.371Z,60.66
2019-04-11T02:32:12.269Z,61.42
2019-04-11T02:32:42.645Z,61.42
2019-04-11T02:33:12.135Z,61.42
2019-04-11T02:33:43.295Z,61.52
2019-04-11T02:34:13.559Z,61.52
2019-04-11T02:34:43.859Z,61.33
2019-04-11T02:35:11.094Z,61.33
2019-04-11T02:35:42.284Z,61.71
2019-04-11T02:36:09.953Z,61.33
2019-04-11T02:36:38.374Z,61.42
2019-04-11T02:37:07.193Z,61.71
2019-04-11T02:37:37.890Z,61.8
2019-04-11T02:38:07.523Z,61.8
2019-04-11T02:38:37.251Z,61.8
2019-04-11T02:39:09.690Z,62.27
2019-04-11T02:39:36.345Z,61.33
2019-04-11T02:40:07.504Z,61.71
2019-04-11T02:40:36.721Z,62.18
2019-04-11T02:41:06.393Z,61.99
2019-04-11T02:41:35.863Z,61.8
2019-04-11T02:42:06.312Z,61.71
2019-04-11T02:42:33.028Z,62.08
2019-04-11T02:43:04.655Z,62.18
2019-04-11T02:43:31.892Z,62.66
2019-04-11T02:44:03.542Z,62.56
2019-04-11T02:44:50.719Z,62.75
2019-04-11T02:45:16.219Z,62.37
2019-04-11T02:45:44.949Z,62.18
2019-04-11T02:46:11.249Z,62.66
2019-04-11T02:46:42.394Z,62.46
2019-04-11T02:47:09.334Z,62.46
2019-04-11T02:47:36.861Z,62.27
2019-04-11T02:48:03.924Z,62.56
2019-04-11T02:48:32.989Z,62.56
2019-04-11T02:49:02.972Z,62.56
2019-04-11T02:49:33.023Z,62.94
2019-04-11T02:50:00.319Z,62.56
2019-04-11T02:50:32.015Z,62.46
2019-04-11T02:51:02.908Z,62.56
2019-04-11T02:51:31.116Z,62.46
2019-04-11T02:52:00.780Z,62.37
2019-04-11T02:52:31.096Z,62.27
2019-04-11T02:52:58.524Z,63.04
2019-04-11T02:53:28.597Z,63.04
2019-04-11T02:53:58.790Z,63.04
2019-04-11T02:54:28.490Z,63.42
2019-04-11T02:54:56.796Z,63.51
2019-04-11T02:55:22.869Z,63.23
2019-04-11T02:55:52.180Z,63.23
2019-04-11T02:56:19.404Z,63.51
2019-04-11T02:56:50.238Z,63.6
2019-04-11T02:57:16.426Z,63.04
2019-04-11T02:57:48.218Z,62.85
2019-04-11T02:58:18.624Z,62.94
2019-04-11T02:58:50.108Z,63.13
2019-04-11T02:59:17.723Z,63.04
2019-04-11T02:59:47.172Z,62.66
2019-04-11T03:00:17.811Z,63.51
2019-04-11T03:00:47.138Z,63.04
2019-04-11T03:01:17.744Z,63.32
2019-04-11T03:01:44.052Z,63.04
2019-04-11T03:02:15.111Z,63.23
2019-04-11T03:02:44.183Z,63.13
2019-04-11T03:03:12.822Z,62.75
2019-04-11T03:03:42.147Z,62.85
2019-04-11T03:04:10.450Z,63.04
2019-04-11T03:04:41.658Z,63.13
2019-04-11T03:05:11.355Z,63.42
2019-04-11T03:05:39.358Z,63.6
2019-04-11T03:06:09.176Z,63.32
2019-04-11T03:06:36.126Z,63.32
2019-04-11T03:07:05.821Z,63.51
2019-04-11T03:07:33.984Z,62.94
2019-04-11T03:08:06.771Z,63.23
2019-04-11T03:08:34.801Z,63.23
2019-04-11T03:09:02.476Z,63.32
2019-04-11T03:09:31.248Z,63.13
2019-04-11T03:09:58.194Z,63.32
2019-04-11T03:10:27.076Z,63.42
2019-04-11T03:10:57.477Z,63.42
2019-04-11T03:11:26.005Z,63.32
2019-04-11T03:11:52.318Z,63.13
2019-04-11T03:12:23.396Z,63.48
2019-04-11T03:12:52.665Z,63.29
2019-04-11T03:13:23.266Z,63.42
2019-04-11T03:13:54.670Z,62.94
2019-04-11T03:14:23.439Z,63.51
2019-04-11T03:15:09.039Z,63.6
2019-04-11T03:15:37.155Z,63.04
2019-04-11T03:16:05.183Z,63.32
2019-04-11T03:16:35.015Z,63.23
2019-04-11T03:17:02.239Z,63.13
2019-04-11T03:17:27.388Z,63.13
2019-04-11T03:17:57.301Z,63.23
2019-04-11T03:18:40.183Z,63.32
2019-04-11T03:19:04.795Z,63.32
2019-04-11T03:19:37.287Z,63.23
2019-04-11T03:20:02.570Z,63.04
2019-04-11T03:20:31.097Z,63.42
2019-04-11T03:20:56.588Z,63.32
2019-04-11T03:21:22.406Z,63.2
2019-04-11T03:21:52.276Z,63.57
2019-04-11T03:22:20.229Z,63.86
2019-04-11T03:22:54.605Z,63.7
2019-04-11T03:23:21.086Z,63.67
2019-04-11T03:23:49.305Z,63.98
2019-04-11T03:24:17.613Z,63.76
2019-04-11T03:24:46.855Z,63.7
2019-04-11T03:25:15.699Z,63.98
2019-04-11T03:25:44.858Z,63.98
2019-04-11T03:26:13.977Z,63.79
2019-04-11T03:26:43.366Z,64.05
2019-04-11T03:27:12.570Z,63.98
2019-04-11T03:27:43.241Z,63.89
2019-04-11T03:28:18.214Z,63.7
2019-04-11T03:28:42.522Z,63.23
2019-04-11T03:29:11.097Z,64.08
2019-04-11T03:29:43.077Z,63.76
2019-04-11T03:30:16.076Z,63.76
2019-04-11T03:30:58.834Z,64.27
2019-04-11T03:31:49.467Z,64.65
2019-04-11T03:32:16.535Z,64.43
2019-04-11T03:32:48.146Z,64.24
2019-04-11T03:34:00.883Z,64.24
2019-04-11T03:36:06.579Z,64.43
2019-04-11T03:36:31.509Z,64.14
2019-04-11T03:37:05.857Z,63.95
2019-04-11T03:37:18.478Z,64.05
2019-04-11T03:37:42.730Z,64.33
2019-04-11T03:38:12.076Z,64.33
2019-04-11T03:38:42.225Z,64.05
2019-04-11T03:39:10.423Z,64.52
2019-04-11T03:39:43.346Z,63.95
2019-04-11T03:40:11.212Z,64.05
2019-04-11T03:40:34.755Z,64.52
2019-04-11T03:41:09.839Z,64.9
2019-04-11T03:41:37.171Z,64.9
2019-04-11T03:42:09.331Z,65.09
2019-04-11T03:42:37.947Z,64.43
2019-04-11T03:43:05.342Z,64.71
2019-04-11T03:43:35.358Z,65
2019-04-11T03:44:03.439Z,65.56
2019-04-11T03:44:33.423Z,65.19
2019-04-11T03:45:14.944Z,65.28
2019-04-11T03:45:47.716Z,65.28
2019-04-11T03:46:12.979Z,65.37
2019-04-11T03:46:41.616Z,65.47
2019-04-11T03:47:11.010Z,65.47
2019-04-11T03:47:39.830Z,65.37
2019-04-11T03:48:12.203Z,65.28
2019-04-11T03:48:40.034Z,65
2019-04-11T03:49:05.944Z,65.19
2019-04-11T03:49:37.353Z,65.19
2019-04-11T03:50:03.627Z,65.19
2019-04-11T03:50:30.352Z,65
2019-04-11T03:50:57.292Z,65.56
2019-04-11T03:51:27.709Z,65.85
2019-04-11T03:51:55.127Z,65.75
2019-04-11T03:52:23.688Z,65.85
2019-04-11T03:52:53.874Z,66.04
2019-04-11T03:53:25.244Z,65.75
2019-04-11T03:53:51.590Z,65.85
2019-04-11T03:54:18.774Z,65.75
2019-04-11T03:54:49.435Z,65.95
2019-04-11T03:55:19.308Z,65.85
2019-04-11T03:55:49.403Z,65.75
2019-04-11T03:56:19.553Z,65.75
2019-04-11T03:56:45.700Z,65.56
2019-04-11T03:57:15.614Z,65.66
2019-04-11T03:57:46.831Z,65.75
2019-04-11T03:58:15.331Z,66.42
2019-04-11T03:58:46.135Z,66.23
2019-04-11T03:59:16.550Z,66.33
2019-04-11T03:59:45.986Z,66.23
2019-04-11T04:00:15.649Z,66.14
2019-04-11T04:00:46.505Z,66.14
2019-04-11T04:01:16.222Z,66.23
2019-04-11T04:01:44.314Z,65.85
2019-04-11T04:02:12.894Z,66.04
2019-04-11T04:02:41.506Z,66.33
2019-04-11T04:03:11.253Z,66.23
2019-04-11T04:03:42.110Z,66.42
2019-04-11T04:04:11.111Z,66.14
2019-04-11T04:04:41.500Z,66.33
2019-04-11T04:05:10.592Z,65.95
2019-04-11T04:05:39.133Z,66.14
2019-04-11T04:06:08.828Z,66.33
2019-04-11T04:06:37.326Z,66.89
2019-04-11T04:07:06.868Z,66.89
2019-04-11T04:07:35.927Z,67.18
2019-04-11T04:08:04.558Z,66.99
2019-04-11T04:08:31.834Z,66.99
2019-04-11T04:09:00.620Z,66.89
2019-04-11T04:09:30.381Z,66.8
2019-04-11T04:09:59.041Z,66.71
2019-04-11T04:10:29.598Z,66.71
2019-04-11T04:11:00.525Z,66.8
2019-04-11T04:11:32.020Z,66.61
2019-04-11T04:11:59.602Z,66.61
2019-04-11T04:12:29.316Z,66.99
2019-04-11T04:12:58.226Z,66.8
2019-04-11T04:13:29.966Z,67.08
2019-04-11T04:13:59.208Z,66.61
2019-04-11T04:14:28.463Z,66.61
2019-04-11T04:14:56.282Z,66.99
2019-04-11T04:15:44.000Z,66.89
2019-04-11T04:16:07.268Z,66.8
2019-04-11T04:16:34.077Z,67.08
2019-04-11T04:17:01.133Z,66.99
2019-04-11T04:17:27.754Z,66.89
2019-04-11T04:17:57.286Z,66.52
2019-04-11T04:18:27.565Z,66.52
2019-04-11T04:18:54.191Z,67.18
2019-04-11T04:19:24.829Z,66.8
2019-04-11T04:19:54.076Z,66.8
2019-04-11T04:20:21.420Z,66.8
2019-04-11T04:20:48.873Z,66.89
2019-04-11T04:21:17.411Z,66.99
2019-04-11T04:21:47.001Z,66.71
2019-04-11T04:22:17.833Z,66.61
2019-04-11T04:22:49.252Z,66.14
2019-04-11T04:23:16.586Z,66.42
2019-04-11T04:23:45.466Z,66.14
2019-04-11T04:24:14.537Z,66.33
2019-04-11T04:24:45.239Z,66.61
2019-04-11T04:25:14.271Z,66.61
2019-04-11T04:25:43.309Z,66.52
2019-04-11T04:26:12.114Z,66.8
2019-04-11T04:26:41.123Z,66.61
2019-04-11T04:27:10.664Z,66.8
2019-04-11T04:27:39.402Z,66.99
2019-04-11T04:28:10.037Z,66.89
2019-04-11T04:28:38.044Z,66.89
2019-04-11T04:29:05.025Z,66.71
2019-04-11T04:29:36.992Z,66.89
2019-04-11T04:30:05.171Z,66.99
2019-04-11T04:30:33.623Z,67.37
2019-04-11T04:31:04.382Z,67.18
2019-04-11T04:31:30.697Z,66.8
2019-04-11T04:31:59.493Z,66.8
2019-04-11T04:32:27.995Z,67.08
2019-04-11T04:32:57.315Z,66.89
2019-04-11T04:33:26.538Z,66.99
2019-04-11T04:33:57.701Z,66.8
2019-04-11T04:34:28.295Z,66.71
2019-04-11T04:34:56.159Z,66.99
2019-04-11T04:35:23.990Z,67.08
2019-04-11T04:35:52.336Z,66.99
2019-04-11T04:36:22.293Z,66.71
2019-04-11T04:36:53.591Z,66.89
2019-04-11T04:37:22.121Z,66.89
2019-04-11T04:37:51.644Z,66.71
2019-04-11T04:38:21.067Z,66.8
2019-04-11T04:38:48.747Z,67.08
2019-04-11T04:39:17.530Z,67.46
2019-04-11T04:39:45.711Z,67.37
2019-04-11T04:40:30.773Z,67.56
2019-04-11T04:41:00.054Z,67.65
2019-04-11T04:41:26.469Z,67.56
2019-04-11T04:41:51.985Z,67.75
2019-04-11T04:42:23.776Z,67.56
2019-04-11T04:42:48.654Z,67.81
2019-04-11T04:43:16.597Z,67.43
2019-04-11T04:43:48.062Z,67.46
2019-04-11T04:44:19.023Z,67.52
2019-04-11T04:44:48.892Z,67.81
2019-04-11T04:45:16.268Z,67.37
2019-04-11T04:46:03.276Z,67.37
2019-04-11T04:46:29.305Z,68.04
2019-04-11T04:46:58.003Z,67.75
2019-04-11T04:47:22.025Z,67.65
2019-04-11T04:47:48.745Z,67.46
2019-04-11T04:48:16.375Z,67.56
2019-04-11T04:48:45.236Z,67.56
2019-04-11T04:49:15.291Z,67.27
2019-04-11T04:49:41.207Z,67.65
2019-04-11T04:50:11.021Z,67.65
2019-04-11T04:50:39.981Z,67.56
2019-04-11T04:51:11.859Z,67.56
2019-04-11T04:51:41.520Z,67.85
2019-04-11T04:52:13.728Z,67.65
2019-04-11T04:52:41.047Z,67.65
2019-04-11T04:53:09.221Z,67.65
2019-04-11T04:53:36.640Z,67.52
2019-04-11T04:54:06.021Z,67.52
2019-04-11T04:54:35.038Z,67.75
2019-04-11T04:55:06.091Z,67.85
2019-04-11T04:55:35.017Z,67.37
2019-04-11T04:56:06.583Z,67.37
2019-04-11T04:56:37.362Z,67.37
2019-04-11T04:57:07.117Z,67.75
2019-04-11T04:57:35.783Z,67.46
2019-04-11T04:58:05.059Z,67.85
2019-04-11T04:58:33.759Z,67.85
2019-04-11T04:59:02.673Z,67.75
2019-04-11T04:59:28.068Z,67.65
2019-04-11T04:59:55.561Z,67.62
2019-04-11T05:00:25.282Z,67.46
2019-04-11T05:00:53.379Z,67.65
2019-04-11T05:01:21.651Z,67.65
2019-04-11T05:01:50.725Z,67.65
2019-04-11T05:02:20.467Z,67.65
2019-04-11T05:02:50.252Z,67.46
2019-04-11T05:03:20.001Z,67.85
2019-04-11T05:03:48.725Z,67.75
2019-04-11T05:04:16.540Z,67.75
2019-04-11T05:04:45.920Z,67.65
2019-04-11T05:05:15.214Z,67.75
2019-04-11T05:05:44.435Z,67.65
2019-04-11T05:06:14.025Z,67.75
2019-04-11T05:06:40.858Z,67.46
2019-04-11T05:07:09.772Z,67.56
2019-04-11T05:07:40.069Z,67.56
2019-04-11T05:08:08.309Z,67.18
2019-04-11T05:08:39.005Z,67.37
2019-04-11T05:09:08.511Z,67.65
2019-04-11T05:09:36.244Z,67.56
2019-04-11T05:10:06.154Z,67.94
2019-04-11T05:10:33.615Z,68.23
2019-04-11T05:11:02.158Z,67.85
2019-04-11T05:11:30.691Z,68.13
2019-04-11T05:11:58.372Z,67.65
2019-04-11T05:12:28.079Z,67.65
2019-04-11T05:12:56.965Z,67.56
2019-04-11T05:13:24.598Z,67.46
2019-04-11T05:13:54.477Z,67.46
2019-04-11T05:14:21.089Z,67.37
2019-04-11T05:14:51.775Z,67.56
2019-04-11T05:15:20.458Z,67.56
2019-04-11T05:15:53.159Z,67.46
2019-04-11T05:16:17.762Z,67.37
2019-04-11T05:16:44.137Z,67.37
2019-04-11T05:17:10.958Z,67.37
2019-04-11T05:17:40.686Z,67.46
2019-04-11T05:18:11.279Z,67.46
2019-04-11T05:18:39.742Z,67.46
2019-04-11T05:19:07.173Z,67.75
2019-04-11T05:19:35.683Z,67.56
2019-04-11T05:20:02.999Z,67.85
2019-04-11T05:20:30.250Z,67.56
2019-04-11T05:20:58.960Z,67.65
2019-04-11T05:21:26.119Z,67.46
2019-04-11T05:21:54.088Z,67.56
2019-04-11T05:22:22.449Z,67.46
2019-04-11T05:22:49.822Z,67.08
2019-04-11T05:23:17.136Z,67.18
2019-04-11T05:23:45.955Z,67.18
2019-04-11T05:24:12.525Z,67.37
2019-04-11T05:24:40.740Z,67.65
2019-04-11T05:25:08.486Z,67.27
2019-04-11T05:25:36.844Z,67.46
2019-04-11T05:26:03.390Z,67.56
2019-04-11T05:26:31.755Z,67.56
2019-04-11T05:26:59.620Z,67.46
2019-04-11T05:27:26.134Z,67.46
2019-04-11T05:27:53.999Z,67.46
2019-04-11T05:28:23.427Z,67.56
2019-04-11T05:28:50.697Z,67.46
2019-04-11T05:29:17.389Z,67.27
2019-04-11T05:29:43.881Z,66.71
2019-04-11T05:30:12.200Z,66.89
2019-04-11T05:30:39.898Z,66.42
2019-04-11T05:31:08.057Z,66.99
2019-04-11T05:31:35.532Z,66.42
2019-04-11T05:32:03.084Z,66.23
2019-04-11T05:32:33.447Z,66.71
2019-04-11T05:33:01.799Z,67.08
2019-04-11T05:33:29.391Z,66.89
2019-04-11T05:33:57.021Z,66.71
2019-04-11T05:34:25.808Z,66.61
2019-04-11T05:34:54.253Z,66.61
2019-04-11T05:35:22.781Z,66.61
2019-04-11T05:35:50.108Z,66.52
2019-04-11T05:36:18.574Z,66.61
2019-04-11T05:36:48.021Z,66.61
2019-04-11T05:37:15.299Z,66.8
2019-04-11T05:37:45.098Z,67.08
2019-04-11T05:38:13.591Z,66.71
2019-04-11T05:38:42.149Z,66.89
2019-04-11T05:39:08.819Z,67.18
2019-04-11T05:39:37.973Z,67.08
2019-04-11T05:40:05.183Z,67.37
2019-04-11T05:40:32.409Z,66.89
2019-04-11T05:40:59.735Z,66.71
2019-04-11T05:41:29.345Z,66.71
2019-04-11T05:41:58.481Z,66.61
2019-04-11T05:42:27.365Z,66.42
2019-04-11T05:42:57.582Z,66.89
2019-04-11T05:43:29.199Z,66.89
2019-04-11T05:43:53.606Z,66.71
2019-04-11T05:44:22.915Z,67.27
2019-04-11T05:44:52.150Z,67.56
2019-04-11T05:45:22.555Z,67.27
2019-04-11T05:45:52.188Z,67.85
2019-04-11T05:46:30.888Z,67.94
2019-04-11T05:46:55.606Z,67.56
2019-04-11T05:47:19.953Z,67.18
2019-04-11T05:47:50.784Z,67.37
2019-04-11T05:48:17.750Z,66.71
2019-04-11T05:48:47.202Z,66.89
2019-04-11T05:49:14.499Z,67.08
2019-04-11T05:49:43.838Z,66.71
2019-04-11T05:50:13.610Z,66.8
2019-04-11T05:50:43.235Z,66.42
2019-04-11T05:51:07.002Z,66.42
2019-04-11T05:51:41.532Z,66.61
2019-04-11T05:52:08.084Z,66.71
2019-04-11T05:52:36.631Z,66.14
2019-04-11T05:53:05.578Z,66.23
2019-04-11T05:53:33.920Z,66.14
2019-04-11T05:54:04.691Z,66.14
2019-04-11T05:54:31.192Z,65.95
2019-04-11T05:55:00.682Z,66.8
2019-04-11T05:55:30.138Z,66.33
2019-04-11T05:55:59.417Z,66.61
2019-04-11T05:56:27.801Z,65.95
2019-04-11T05:56:57.772Z,66.8
2019-04-11T05:57:31.229Z,66.71
2019-04-11T05:57:54.379Z,66.89
2019-04-11T05:58:24.117Z,66.8
2019-04-11T05:58:53.236Z,66.52
2019-04-11T05:59:21.560Z,66.71
2019-04-11T05:59:53.365Z,66.89
2019-04-11T06:00:21.467Z,66.71
2019-04-11T06:00:49.272Z,66.89
2019-04-11T06:01:15.906Z,66.61
2019-04-11T06:01:44.590Z,66.61
2019-04-11T06:02:12.962Z,67.18
2019-04-11T06:02:41.564Z,67.27
2019-04-11T06:03:10.028Z,67.56
2019-04-11T06:03:42.193Z,67.56
2019-04-11T06:04:13.055Z,67.56
2019-04-11T06:04:40.555Z,67.65
2019-04-11T06:05:09.038Z,67.37
2019-04-11T06:05:39.440Z,67.85
2019-04-11T06:06:08.650Z,67.65
2019-04-11T06:06:37.497Z,67.65
2019-04-11T06:07:07.814Z,67.46
2019-04-11T06:07:33.368Z,67.46
2019-04-11T06:08:02.673Z,67.37
2019-04-11T06:08:32.207Z,67.46
2019-04-11T06:09:01.181Z,67.46
2019-04-11T06:09:32.783Z,67.75
2019-04-11T06:09:58.689Z,67.75
2019-04-11T06:10:28.182Z,67.65
2019-04-11T06:10:56.673Z,67.56
2019-04-11T06:11:24.843Z,67.65
2019-04-11T06:11:56.333Z,68.23
2019-04-11T06:12:25.415Z,67.56
2019-04-11T06:12:54.695Z,67.65
2019-04-11T06:13:22.637Z,67.75
2019-04-11T06:13:50.924Z,67.85
2019-04-11T06:14:19.406Z,67.85
2019-04-11T06:14:44.481Z,67.65
2019-04-11T06:15:13.528Z,67.46
2019-04-11T06:15:44.239Z,67.46
2019-04-11T06:16:09.863Z,67.56
2019-04-11T06:16:43.465Z,67.56
2019-04-11T06:17:07.653Z,68.23